createdAt,value
2023-05-01T00:02:02.499Z,13.03
2023-05-01T00:04:29.530Z,11.73
2023-05-01T00:06:56.311Z,13.27
2023-05-01T00:09:23.183Z,14.80
2023-05-01T00:11:50.055Z,14.37
2023-05-01T00:14:16.893Z,15.10
2023-05-01T00:16:43.799Z,12.90
2023-05-01T00:19:12.723Z,15.87
2023-05-01T00:21:39.602Z,14.20
2023-05-01T00:24:06.385Z,11.47
2023-05-01T00:26:33.272Z,12.43
2023-05-01T00:29:00.528Z,8.97
2023-05-01T00:31:27.387Z,11.43
2023-05-01T00:33:54.370Z,12.53
2023-05-01T00:36:21.493Z,11.07
2023-05-01T00:38:48.381Z,9.70
2023-05-01T00:41:15.177Z,8.33
2023-05-01T00:43:42.339Z,8.47
2023-05-01T00:46:09.904Z,14.67
2023-05-01T00:48:36.980Z,11.43
2023-05-01T00:51:06.162Z,11.10
2023-05-01T00:53:36.283Z,9.93
2023-05-01T00:56:04.428Z,11.67
2023-05-01T00:58:31.414Z,9.97
2023-05-01T01:00:58.324Z,10.50
2023-05-01T01:03:25.193Z,10.60
2023-05-01T01:06:05.297Z,11.67
2023-05-01T01:08:44.140Z,11.10
2023-05-01T01:11:14.003Z,11.67
2023-05-01T01:13:47.812Z,13.60
2023-05-01T01:16:14.631Z,13.83
2023-05-01T01:18:53.362Z,12.80
2023-05-01T01:21:39.762Z,14.67
2023-05-01T01:24:15.874Z,13.70
2023-05-01T01:26:58.883Z,12.87
2023-05-01T01:29:50.537Z,14.87
2023-05-01T01:32:36.149Z,14.67
2023-05-01T01:35:13.069Z,20.40
2023-05-01T01:37:44.088Z,16.60
2023-05-01T01:40:14.237Z,15.70
2023-05-01T01:42:43.267Z,19.93
2023-05-01T01:45:15.595Z,17.83
2023-05-01T01:47:43.491Z,16.00
2023-05-01T01:50:11.172Z,16.97
2023-05-01T01:52:39.206Z,13.80
2023-05-01T01:55:09.068Z,12.10
2023-05-01T01:57:37.235Z,11.67
2023-05-01T02:00:09.098Z,12.63
2023-05-01T02:02:41.230Z,10.63
2023-05-01T02:05:11.803Z,10.13
2023-05-01T02:07:40.444Z,14.80
2023-05-01T02:10:08.737Z,10.70
2023-05-01T02:12:37.052Z,11.50
2023-05-01T02:15:05.261Z,10.57
2023-05-01T02:17:32.618Z,12.10
2023-05-01T02:19:59.909Z,10.67
2023-05-01T02:22:27.482Z,12.20
2023-05-01T02:24:54.988Z,15.10
2023-05-01T02:27:23.966Z,14.90
2023-05-01T02:29:54.239Z,14.80
2023-05-01T02:32:21.429Z,11.47
2023-05-01T02:34:49.163Z,12.93
2023-05-01T02:37:16.778Z,15.47
2023-05-01T02:39:45.276Z,14.70
2023-05-01T02:42:13.501Z,18.13
2023-05-01T02:44:42.086Z,20.50
2023-05-01T02:47:10.330Z,16.00
2023-05-01T02:49:39.540Z,19.30
2023-05-01T02:52:06.889Z,22.60
2023-05-01T02:54:34.791Z,22.27
2023-05-01T02:57:03.963Z,20.33
2023-05-01T02:59:30.887Z,17.00
2023-05-01T03:01:58.297Z,14.37
2023-05-01T03:04:25.691Z,18.13
2023-05-01T03:06:52.581Z,16.47
2023-05-01T03:09:19.646Z,20.50
2023-05-01T03:11:46.813Z,20.40
2023-05-01T03:14:14.061Z,18.37
2023-05-01T03:16:41.393Z,19.03
2023-05-01T03:19:08.386Z,18.73
2023-05-01T03:21:35.158Z,19.57
2023-05-01T03:24:02.074Z,18.40
2023-05-01T03:26:30.326Z,16.43
2023-05-01T03:28:57.167Z,19.70
2023-05-01T03:31:24.312Z,18.83
2023-05-01T03:33:51.372Z,20.67
2023-05-01T03:36:18.131Z,17.67
2023-05-01T03:38:47.601Z,17.23
2023-05-01T03:41:33.116Z,19.33
2023-05-01T03:44:19.673Z,18.20
2023-05-01T03:46:47.448Z,16.30
2023-05-01T03:49:20.754Z,19.70
2023-05-01T03:51:49.041Z,16.87
2023-05-01T03:54:16.157Z,20.90
2023-05-01T03:57:05.804Z,19.00
2023-05-01T03:59:32.691Z,17.80
2023-05-01T04:01:59.556Z,27.50
2023-05-01T04:04:30.094Z,23.17
2023-05-01T04:06:58.481Z,24.50
2023-05-01T04:09:25.741Z,23.33
2023-05-01T04:11:52.511Z,30.73
2023-05-01T04:14:19.308Z,29.93
2023-05-01T04:16:46.247Z,30.30
2023-05-01T04:19:16.429Z,25.53
2023-05-01T04:21:46.308Z,30.70
2023-05-01T04:24:13.447Z,29.00
2023-05-01T04:26:40.632Z,22.90
2023-05-01T04:29:09.044Z,26.33
2023-05-01T04:31:36.340Z,23.20
2023-05-01T04:34:03.378Z,24.17
2023-05-01T04:36:33.073Z,28.13
2023-05-01T04:39:00.208Z,29.50
2023-05-01T04:41:27.361Z,29.43
2023-05-01T04:43:54.249Z,25.40
2023-05-01T04:46:21.720Z,25.37
2023-05-01T04:48:48.681Z,25.50
2023-05-01T04:51:15.445Z,26.97
2023-05-01T04:53:42.288Z,23.93
2023-05-01T04:56:19.466Z,26.07
2023-05-01T04:58:47.959Z,23.70
2023-05-01T05:01:19.632Z,25.83
2023-05-01T05:03:49.624Z,29.67
2023-05-01T05:06:17.125Z,24.47
2023-05-01T05:08:44.043Z,24.20
2023-05-01T05:11:11.634Z,22.30
2023-05-01T05:14:01.400Z,23.23
2023-05-01T05:16:28.459Z,25.57
2023-05-01T05:18:56.349Z,23.97
2023-05-01T05:21:25.167Z,23.50
2023-05-01T05:23:55.458Z,16.93
2023-05-01T05:26:22.412Z,15.50
2023-05-01T05:28:51.071Z,19.10
2023-05-01T05:31:18.045Z,13.40
2023-05-01T05:33:44.924Z,12.70
2023-05-01T05:36:13.027Z,11.23
2023-05-01T05:38:42.724Z,13.40
2023-05-01T05:41:13.728Z,10.00
2023-05-01T05:43:40.558Z,12.50
2023-05-01T05:46:08.629Z,12.13
2023-05-01T05:48:37.090Z,13.03
2023-05-01T05:51:04.593Z,12.40
2023-05-01T05:53:31.742Z,12.03
2023-05-01T05:55:58.958Z,12.90
2023-05-01T05:58:25.867Z,9.57
2023-05-01T06:00:58.840Z,15.07
2023-05-01T06:03:27.522Z,10.17
2023-05-01T06:05:58.882Z,12.97
2023-05-01T06:08:25.865Z,11.30
2023-05-01T06:10:52.648Z,14.27
2023-05-01T06:13:19.643Z,11.23
2023-05-01T06:15:49.188Z,8.93
2023-05-01T06:18:16.441Z,9.83
2023-05-01T06:20:43.582Z,7.73
2023-05-01T06:23:10.921Z,11.77
2023-05-01T06:25:43.290Z,9.23
2023-05-01T06:28:10.075Z,8.63
2023-05-01T06:30:37.296Z,15.03
2023-05-01T06:33:04.631Z,8.47
2023-05-01T06:35:32.525Z,9.13
2023-05-01T06:38:00.447Z,7.10
2023-05-01T06:40:27.382Z,9.63
2023-05-01T06:42:54.906Z,9.73
2023-05-01T06:45:28.212Z,8.07
2023-05-01T06:47:55.110Z,9.47
2023-05-01T06:50:21.964Z,8.47
2023-05-01T06:52:48.765Z,1.70
2023-05-01T06:55:15.671Z,4.80
2023-05-01T06:57:43.034Z,1.27
2023-05-01T07:00:11.056Z,2.10
2023-05-01T07:02:38.490Z,5.67
2023-05-01T07:05:05.870Z,6.37
2023-05-01T07:07:32.702Z,4.63
2023-05-01T07:09:59.837Z,6.63
2023-05-01T07:12:26.996Z,6.67
2023-05-01T07:14:53.828Z,7.07
2023-05-01T07:17:20.677Z,8.20
2023-05-01T07:19:47.575Z,5.27
2023-05-01T07:22:14.350Z,4.30
2023-05-01T07:24:41.200Z,3.70
2023-05-01T07:27:08.249Z,3.50
2023-05-01T07:29:36.777Z,4.73
2023-05-01T07:32:06.120Z,7.63
2023-05-01T07:34:33.197Z,6.20
2023-05-01T07:37:00.103Z,5.03
2023-05-01T07:39:27.057Z,8.33
2023-05-01T07:41:53.862Z,6.73
2023-05-01T07:44:21.131Z,5.50
2023-05-01T07:46:48.021Z,7.43
2023-05-01T07:49:14.763Z,3.40
2023-05-01T07:51:42.513Z,10.00
2023-05-01T07:54:09.276Z,11.43
2023-05-01T07:56:36.102Z,8.60
2023-05-01T07:59:03.021Z,6.17
2023-05-01T08:01:29.952Z,8.20
2023-05-01T08:03:56.896Z,7.33
2023-05-01T08:06:23.812Z,8.70
2023-05-01T08:08:50.837Z,4.63
2023-05-01T08:11:17.673Z,3.20
2023-05-01T10:21:23.997Z,5.63
2023-05-01T10:23:51.959Z,4.87
2023-05-01T10:26:19.268Z,11.23
2023-05-01T10:28:47.451Z,3.43
2023-05-01T10:31:14.449Z,0.93
2023-05-01T10:33:41.729Z,5.70
2023-05-01T10:36:11.720Z,0.60
2023-05-01T10:38:38.559Z,6.53
2023-05-01T10:41:07.106Z,6.67
2023-05-01T10:43:33.906Z,5.33
2023-05-01T10:46:21.838Z,2.53
2023-05-01T10:48:51.798Z,4.97
2023-05-01T10:51:20.716Z,3.07
2023-05-01T10:53:48.560Z,1.97
2023-05-01T10:56:30.287Z,3.77
2023-05-01T10:59:01.066Z,2.70
2023-05-01T11:01:28.331Z,1.07
2023-05-01T11:03:56.090Z,4.87
2023-05-01T11:06:24.231Z,3.80
2023-05-01T11:08:51.387Z,0.47
2023-05-01T11:11:23.963Z,2.40
2023-05-01T11:14:04.342Z,5.43
2023-05-01T11:16:35.912Z,3.13
2023-05-01T11:19:02.764Z,2.87
2023-05-01T11:21:30.561Z,5.67
2023-05-01T11:23:57.596Z,2.03
2023-05-01T11:26:24.474Z,2.20
2023-05-01T11:28:54.235Z,8.83
2023-05-01T11:31:21.353Z,6.07
2023-05-01T11:33:48.175Z,0.70
2023-05-01T11:36:14.996Z,2.10
2023-05-01T11:38:54.600Z,4.83
2023-05-01T11:41:21.728Z,1.90
2023-05-01T11:43:54.444Z,1.30
2023-05-01T11:46:28.635Z,2.83
2023-05-01T11:48:56.534Z,3.97
2023-05-01T11:51:23.674Z,3.20
2023-05-01T11:54:04.201Z,3.30
2023-05-01T11:56:31.792Z,6.63
2023-05-01T11:58:59.873Z,7.30
2023-05-01T12:01:36.771Z,5.27
2023-05-01T12:04:04.374Z,1.80
2023-05-01T12:06:46.846Z,1.30
2023-05-01T12:09:17.427Z,3.00
2023-05-01T12:11:44.783Z,2.70
2023-05-01T12:14:11.925Z,4.77
2023-05-01T12:16:40.650Z,4.20
2023-05-01T12:19:07.735Z,6.37
2023-05-01T12:21:35.413Z,4.00
2023-05-01T12:24:12.574Z,6.07
2023-05-01T12:26:39.808Z,3.63
2023-05-01T12:29:07.874Z,2.70
2023-05-01T12:31:35.327Z,1.43
2023-05-01T12:34:06.239Z,1.97
2023-05-01T12:36:36.710Z,0.83
2023-05-01T12:39:07.476Z,4.83
2023-05-01T12:41:37.224Z,6.27
2023-05-01T12:44:23.369Z,2.20
2023-05-01T12:46:54.154Z,3.27
2023-05-01T12:49:21.508Z,3.83
2023-05-01T12:51:48.932Z,5.83
2023-05-01T12:54:20.609Z,4.23
2023-05-01T12:56:47.622Z,7.27
2023-05-01T12:59:24.934Z,6.13
2023-05-01T13:02:02.052Z,2.00
2023-05-01T13:04:29.341Z,5.57
2023-05-01T13:06:57.020Z,4.77
2023-05-01T13:09:24.711Z,3.63
2023-05-01T13:12:02.455Z,6.60
2023-05-01T13:14:30.867Z,0.80
2023-05-01T13:16:57.942Z,1.70
2023-05-01T13:19:26.857Z,1.07
2023-05-01T13:21:53.830Z,3.07
2023-05-01T13:24:20.636Z,8.93
2023-05-01T13:26:47.528Z,4.17
2023-05-01T13:29:15.624Z,3.60
2023-05-01T13:31:43.351Z,4.63
2023-05-01T13:34:10.281Z,3.57
2023-05-01T13:36:37.410Z,2.40
2023-05-01T13:39:04.375Z,1.03
2023-05-01T13:41:31.224Z,2.13
2023-05-01T13:43:58.132Z,4.80
2023-05-01T13:46:26.623Z,3.03
2023-05-01T13:48:53.728Z,6.27
2023-05-01T13:51:22.563Z,4.97
2023-05-01T13:53:49.483Z,5.20
2023-05-01T13:56:16.547Z,5.17
2023-05-01T13:58:43.388Z,2.43
2023-05-01T14:01:15.252Z,6.67
2023-05-01T14:03:42.736Z,0.33
2023-05-01T14:06:16.957Z,6.73
2023-05-01T14:08:44.914Z,2.97
2023-05-01T14:11:12.628Z,5.10
2023-05-01T14:13:46.536Z,3.43
2023-05-01T14:16:31.932Z,4.33
2023-05-01T14:18:58.932Z,4.27
2023-05-01T14:21:28.241Z,7.37
2023-05-01T14:23:55.863Z,3.70
2023-05-01T14:26:24.234Z,4.03
2023-05-01T14:28:51.136Z,2.40
2023-05-01T14:31:25.492Z,2.97
2023-05-01T14:33:59.796Z,8.10
2023-05-01T14:36:28.488Z,4.73
2023-05-01T14:38:58.764Z,5.60
2023-05-01T14:41:26.003Z,1.27
2023-05-01T14:43:56.266Z,7.97
2023-05-01T14:46:34.021Z,5.67
2023-05-01T14:49:01.710Z,5.57
2023-05-01T14:51:29.467Z,6.30
2023-05-01T14:53:56.425Z,8.13
2023-05-01T14:56:23.448Z,6.03
2023-05-01T14:58:50.292Z,2.90
2023-05-01T15:01:18.339Z,7.37
2023-05-01T15:03:45.617Z,6.77
2023-05-01T15:06:12.736Z,6.30
2023-05-01T15:08:39.936Z,5.80
2023-05-01T15:11:06.849Z,5.07
2023-05-01T15:13:33.625Z,2.50
2023-05-01T15:16:00.778Z,6.73
2023-05-01T15:18:27.767Z,3.67
2023-05-01T15:20:54.518Z,1.00
2023-05-01T15:23:21.606Z,1.33
2023-05-01T15:25:50.745Z,3.40
2023-05-01T15:28:17.769Z,3.77
2023-05-01T15:30:46.572Z,1.30
2023-05-01T15:33:16.945Z,7.07
2023-05-01T15:35:46.261Z,3.27
2023-05-01T15:38:13.105Z,7.67
2023-05-01T15:40:40.094Z,4.23
2023-05-01T15:43:06.871Z,8.73
2023-05-01T15:45:34.025Z,4.63
2023-05-01T15:48:01.373Z,4.30
2023-05-01T15:50:28.464Z,4.67
2023-05-01T15:52:55.417Z,4.33
2023-05-01T15:55:22.195Z,7.47
2023-05-01T15:57:49.087Z,4.63
2023-05-01T16:00:16.975Z,5.97
2023-05-01T16:02:44.825Z,6.50
2023-05-01T16:05:12.464Z,5.10
2023-05-01T16:07:39.706Z,6.13
2023-05-01T16:10:07.826Z,13.73
2023-05-01T16:12:34.719Z,5.77
2023-05-01T16:15:02.842Z,7.10
2023-05-01T16:17:31.509Z,4.60
2023-05-01T16:20:00.306Z,5.23
2023-05-01T16:22:28.464Z,5.57
2023-05-01T16:24:55.321Z,4.03
2023-05-01T16:27:22.114Z,4.87
2023-05-01T16:29:49.209Z,4.30
2023-05-01T16:32:16.924Z,6.80
2023-05-01T16:34:44.289Z,5.27
2023-05-01T16:37:13.333Z,4.00
2023-05-01T16:39:40.196Z,4.50
2023-05-01T16:42:07.015Z,2.90
2023-05-01T16:44:35.844Z,5.40
2023-05-01T16:47:03.646Z,3.97
2023-05-01T16:49:30.461Z,2.97
2023-05-01T16:51:58.724Z,5.30
2023-05-01T16:54:32.206Z,3.83
2023-05-01T16:56:59.496Z,5.80
2023-05-01T16:59:28.176Z,5.87
2023-05-01T17:01:55.112Z,4.07
2023-05-01T17:04:22.418Z,4.93
2023-05-01T17:06:49.479Z,9.17
2023-05-01T17:09:16.337Z,5.03
2023-05-01T17:11:57.091Z,4.23
2023-05-01T17:14:24.017Z,4.27
2023-05-01T17:16:50.879Z,5.40
2023-05-01T17:19:17.870Z,4.50
2023-05-01T17:21:44.624Z,9.30
2023-05-01T17:24:13.423Z,6.13
2023-05-01T17:26:40.301Z,7.07
2023-05-01T17:29:07.148Z,10.33
2023-05-01T17:31:34.042Z,8.60
2023-05-01T17:34:00.934Z,4.97
2023-05-01T17:36:29.306Z,6.67
2023-05-01T17:38:56.464Z,5.67
2023-05-01T17:41:24.915Z,8.23
2023-05-01T17:43:51.699Z,7.80
2023-05-01T17:46:18.687Z,8.83
2023-05-01T17:48:45.765Z,6.47
2023-05-01T17:51:14.223Z,5.10
2023-05-01T17:53:41.665Z,8.13
2023-05-01T17:56:09.172Z,8.57
2023-05-01T17:58:36.091Z,4.73
2023-05-01T18:01:04.837Z,8.77
2023-05-01T18:03:34.691Z,6.40
2023-05-01T18:06:02.214Z,5.53
2023-05-01T18:08:29.131Z,7.67
2023-05-01T18:10:56.136Z,5.73
2023-05-01T18:13:28.244Z,6.90
2023-05-01T18:15:55.905Z,15.80
2023-05-01T18:18:22.981Z,13.47
2023-05-01T18:20:50.010Z,10.80
2023-05-01T18:23:17.942Z,8.87
2023-05-01T18:25:45.739Z,9.00
2023-05-01T18:28:12.982Z,15.90
2023-05-01T18:30:39.851Z,9.67
2023-05-01T18:33:06.752Z,66.67
2023-05-01T18:35:33.827Z,65.83
2023-05-01T18:38:00.743Z,16.33
2023-05-01T18:40:27.942Z,24.60
2023-05-01T18:42:54.862Z,11.93
2023-05-01T18:45:21.825Z,8.33
2023-05-01T18:47:48.746Z,11.53
2023-05-01T18:50:17.192Z,10.73
2023-05-01T18:52:44.020Z,23.97
2023-05-01T18:55:11.761Z,9.83
2023-05-01T18:57:38.696Z,6.13
2023-05-01T19:00:06.718Z,45.23
2023-05-01T19:02:33.539Z,9.57
2023-05-01T19:05:00.487Z,15.30
2023-05-01T19:07:27.314Z,12.40
2023-05-01T19:09:54.248Z,9.63
2023-05-01T19:12:21.032Z,13.27
2023-05-01T19:14:47.903Z,14.10
2023-05-01T19:17:14.990Z,9.60
2023-05-01T19:19:41.748Z,9.20
2023-05-01T19:22:08.615Z,8.50
2023-05-01T19:24:35.632Z,7.43
2023-05-01T19:27:03.518Z,8.03
2023-05-01T19:29:33.660Z,6.07
2023-05-01T19:32:00.793Z,9.27
2023-05-01T19:34:28.070Z,9.97
2023-05-01T19:36:57.189Z,8.87
2023-05-01T19:39:24.011Z,14.60
2023-05-01T19:41:51.134Z,12.93
2023-05-01T19:44:18.181Z,9.87
2023-05-01T19:46:45.211Z,7.83
2023-05-01T19:49:12.262Z,6.67
2023-05-01T19:51:39.018Z,11.50
2023-05-01T19:54:05.787Z,8.70
2023-05-01T19:56:32.747Z,10.73
2023-05-01T19:58:59.493Z,8.03
2023-05-01T20:01:26.468Z,10.43
2023-05-01T20:03:53.370Z,10.90
2023-05-01T20:06:20.219Z,6.77
2023-05-01T20:08:48.535Z,8.07
2023-05-01T20:11:15.382Z,8.33
2023-05-01T20:13:42.155Z,8.17
2023-05-01T20:16:10.226Z,10.23
2023-05-01T20:18:37.413Z,8.03
2023-05-01T20:21:06.158Z,7.20
2023-05-01T20:23:33.014Z,8.63
2023-05-01T20:25:59.969Z,9.67
2023-05-01T20:28:27.142Z,8.60
2023-05-01T20:30:54.358Z,9.67
2023-05-01T20:33:21.150Z,9.97
2023-05-01T20:35:48.084Z,8.07
2023-05-01T20:38:14.832Z,11.33
2023-05-01T20:40:42.480Z,9.50
2023-05-01T20:43:09.278Z,6.23
2023-05-01T20:45:36.178Z,9.67
2023-05-01T20:48:03.053Z,8.33
2023-05-01T20:50:29.849Z,5.50
2023-05-01T20:52:56.681Z,10.87
2023-05-01T20:55:23.887Z,6.17
2023-05-01T20:57:50.811Z,8.13
2023-05-01T21:00:17.655Z,7.77
2023-05-01T21:02:44.791Z,10.07
2023-05-01T21:05:11.909Z,8.93
2023-05-01T21:07:39.712Z,8.53
2023-05-01T21:10:07.007Z,13.33
2023-05-01T21:12:33.899Z,9.93
2023-05-01T21:15:00.745Z,8.93
2023-05-01T21:17:27.833Z,12.67
2023-05-01T21:19:54.683Z,11.97
2023-05-01T21:22:22.354Z,19.93
2023-05-01T21:24:53.253Z,16.57
2023-05-01T21:27:20.574Z,11.93
2023-05-01T21:29:53.042Z,22.77
2023-05-01T21:32:19.856Z,20.30
2023-05-01T21:34:46.732Z,11.93
2023-05-01T21:37:18.713Z,9.63
2023-05-01T21:39:46.017Z,11.97
2023-05-01T21:42:14.514Z,9.97
2023-05-01T21:44:41.470Z,9.47
2023-05-01T21:47:09.078Z,14.83
2023-05-01T21:49:38.202Z,9.43
2023-05-01T21:52:05.341Z,11.53
2023-05-01T21:54:33.037Z,12.20
2023-05-01T21:57:00.915Z,11.83
2023-05-01T21:59:32.741Z,11.47
2023-05-01T22:01:59.569Z,12.77
2023-05-01T22:04:26.349Z,14.93
2023-05-01T22:06:53.233Z,10.27
2023-05-01T22:09:20.623Z,16.50
2023-05-01T22:11:47.433Z,13.13
2023-05-01T22:14:14.301Z,12.17
2023-05-01T22:16:41.602Z,10.87
2023-05-01T22:19:08.634Z,10.80
2023-05-01T22:21:35.547Z,10.60
2023-05-01T22:24:03.226Z,8.27
2023-05-01T22:26:30.141Z,12.73
2023-05-01T22:28:57.036Z,9.00
2023-05-01T22:31:23.871Z,11.03
2023-05-01T22:33:50.825Z,11.50
2023-05-01T22:36:17.592Z,10.73
2023-05-01T22:38:44.473Z,11.87
2023-05-01T22:41:11.789Z,14.07
2023-05-01T22:43:39.595Z,12.60
2023-05-01T22:46:06.830Z,12.87
2023-05-01T22:48:33.674Z,14.30
2023-05-01T22:51:00.665Z,16.67
2023-05-01T22:53:28.652Z,11.73
2023-05-01T22:55:55.668Z,13.97
2023-05-01T22:58:22.518Z,15.60
2023-05-01T23:00:49.308Z,10.10
2023-05-01T23:03:16.260Z,13.63
2023-05-01T23:05:43.946Z,11.70
2023-05-01T23:08:10.687Z,10.33
2023-05-01T23:10:40.690Z,11.47
2023-05-01T23:13:22.262Z,12.97
2023-05-01T23:15:53.009Z,11.50
2023-05-01T23:18:30.584Z,11.97
2023-05-01T23:20:57.552Z,10.93
2023-05-01T23:23:28.205Z,11.43
2023-05-01T23:25:55.367Z,13.07
2023-05-01T23:28:26.142Z,15.23
2023-05-01T23:30:56.674Z,13.63
2023-05-01T23:33:37.969Z,14.20
2023-05-01T23:36:06.760Z,10.50
2023-05-01T23:38:33.514Z,12.37
2023-05-01T23:41:00.436Z,15.10
2023-05-01T23:43:27.258Z,13.83
2023-05-01T23:45:54.162Z,14.53
2023-05-01T23:48:21.157Z,16.80
2023-05-01T23:50:47.938Z,13.07
2023-05-01T23:53:15.289Z,18.00
2023-05-01T23:55:43.592Z,12.17
2023-05-01T23:58:12.118Z,10.67
